Time;durP1;ratioP1;P1;durP2;ratioP2;P2;SDS_P1;SDS_P2;PMS_P1;PMS_P2;Temp;Humidity;BMP_temperature;BMP_pressure;BME280_temperature;BME280_humidity;BME280_pressure;Samples;Min_cycle;Max_cycle;Signal;HPM_P1;HPM_P2
2022/03/30 00:00:43;;;;;;;30.33;11.93;;;;;;;;;;4971963;28;20069;-65
2022/03/30 00:03:09;;;;;;;30.20;12.20;;;;;;;;;;4973005;28;20506;-65
2022/03/30 00:05:34;;;;;;;27.38;11.70;;;;;;;;;;4972491;28;20086;-65
2022/03/30 00:08:00;;;;;;;30.88;12.27;;;;;;;;;;4972960;28;20109;-65
2022/03/30 00:10:25;;;;;;;31.00;11.48;;;;;;;;;;4972602;28;20034;-65
2022/03/30 00:12:51;;;;;;;24.75;11.25;;;;;;;;;;4972360;28;20683;-65
2022/03/30 00:15:16;;;;;;;27.08;11.73;;;;;;;;;;4972579;28;20077;-64
2022/03/30 00:17:42;;;;;;;27.33;11.90;;;;;;;;;;4972016;28;20035;-64
2022/03/30 00:20:09;;;;;;;31.08;11.65;;;;;;;;;;4955527;28;20111;-65
2022/03/30 00:22:34;;;;;;;27.13;11.25;;;;;;;;;;4972234;28;20031;-65
2022/03/30 00:24:59;;;;;;;24.80;11.25;;;;;;;;;;4955523;28;20022;-65
2022/03/30 00:27:25;;;;;;;27.27;11.82;;;;;;;;;;4972634;28;20030;-64
2022/03/30 00:29:50;;;;;;;28.98;11.38;;;;;;;;;;4970714;28;20031;-65
2022/03/30 00:32:16;;;;;;;30.00;11.60;;;;;;;;;;4972937;28;20023;-64
2022/03/30 00:34:42;;;;;;;29.02;12.25;;;;;;;;;;4975531;28;20384;-65
2022/03/30 00:37:08;;;;;;;26.58;11.55;;;;;;;;;;4975933;28;20034;-65
2022/03/30 00:39:34;;;;;;;29.58;12.73;;;;;;;;;;4975725;28;20041;-66
2022/03/30 00:42:00;;;;;;;27.48;11.65;;;;;;;;;;4975794;28;20034;-65
2022/03/30 00:44:25;;;;;;;25.45;11.32;;;;;;;;;;4976104;28;20041;-64
2022/03/30 00:46:51;;;;;;;32.35;12.02;;;;;;;;;;4975197;28;20406;-65
2022/03/30 00:49:16;;;;;;;29.77;12.00;;;;;;;;;;4971402;28;20050;-64
2022/03/30 00:51:43;;;;;;;26.10;11.15;;;;;;;;;;4955634;28;20221;-64
2022/03/30 00:54:09;;;;;;;30.50;12.32;;;;;;;;;;4956659;28;20035;-64
2022/03/30 00:56:36;;;;;;;28.23;12.13;;;;;;;;;;4955899;28;20046;-67
2022/03/30 00:59:05;;;;;;;29.05;12.00;;;;;;;;;;4956563;28;20508;-65
2022/03/30 01:01:31;;;;;;;25.33;12.10;;;;;;;;;;4956441;29;20035;-64
2022/03/30 01:03:57;;;;;;;26.85;11.98;;;;;;;;;;4955852;28;20469;-65
2022/03/30 01:06:22;;;;;;;23.85;10.77;;;;;;;;;;4956375;29;20042;-65
2022/03/30 01:08:48;;;;;;;34.42;11.85;;;;;;;;;;4955446;29;20469;-65
2022/03/30 01:11:15;;;;;;;26.23;11.50;;;;;;;;;;4954914;28;20031;-65
2022/03/30 01:13:41;;;;;;;28.48;12.02;;;;;;;;;;4955684;29;20074;-64
2022/03/30 01:16:06;;;;;;;24.15;11.20;;;;;;;;;;4955961;29;20118;-65
2022/03/30 01:18:41;;;;;;;25.30;11.07;;;;;;;;;;4956291;29;20487;-65
2022/03/30 01:21:08;;;;;;;28.85;11.35;;;;;;;;;;4955863;29;20083;-65
2022/03/30 01:23:36;;;;;;;24.70;11.23;;;;;;;;;;4955820;29;20027;-65
2022/03/30 01:26:05;;;;;;;31.05;11.35;;;;;;;;;;4956018;29;20028;-64
2022/03/30 01:28:34;;;;;;;26.92;11.57;;;;;;;;;;4956095;28;20034;-64
2022/03/30 01:33:45;;;;;;;25.75;11.20;;;;;;;;;;4955372;29;20389;-65
2022/03/30 01:36:11;;;;;;;28.17;10.80;;;;;;;;;;4955872;28;20496;-65
2022/03/30 01:38:37;;;;;;;24.05;10.70;;;;;;;;;;4969924;28;20031;-65
2022/03/30 01:41:03;;;;;;;23.38;11.27;;;;;;;;;;4970489;28;20050;-65
2022/03/30 01:43:28;;;;;;;28.75;11.40;;;;;;;;;;4955573;28;20106;-65
2022/03/30 01:45:55;;;;;;;26.33;11.10;;;;;;;;;;4955051;28;20051;-65
2022/03/30 01:48:22;;;;;;;25.80;11.43;;;;;;;;;;4955802;28;20031;-65
2022/03/30 01:50:47;;;;;;;24.13;11.02;;;;;;;;;;4969224;28;20054;-65
2022/03/30 01:53:13;;;;;;;26.30;10.95;;;;;;;;;;4955485;29;20377;-65
2022/03/30 01:55:39;;;;;;;27.40;11.48;;;;;;;;;;4969597;28;20031;-65
2022/03/30 01:58:05;;;;;;;30.23;11.68;;;;;;;;;;4955444;28;20031;-64
2022/03/30 02:00:30;;;;;;;28.02;11.55;;;;;;;;;;4955414;28;20122;-64
2022/03/30 02:02:56;;;;;;;24.88;11.00;;;;;;;;;;4954782;28;20031;-65
2022/03/30 02:05:21;;;;;;;26.75;11.25;;;;;;;;;;4954971;28;20444;-65
2022/03/30 02:07:47;;;;;;;30.80;11.38;;;;;;;;;;4954704;28;20055;-65
2022/03/30 02:10:13;;;;;;;25.15;11.05;;;;;;;;;;4954779;28;20035;-65
2022/03/30 02:12:39;;;;;;;32.10;11.13;;;;;;;;;;4970140;28;20385;-67
2022/03/30 02:15:06;;;;;;;29.67;11.90;;;;;;;;;;4955214;28;20035;-64
2022/03/30 02:17:32;;;;;;;26.75;11.45;;;;;;;;;;4954849;28;20485;-65
2022/03/30 02:19:57;;;;;;;25.23;11.02;;;;;;;;;;4954441;28;20037;-65
2022/03/30 02:22:23;;;;;;;30.10;12.18;;;;;;;;;;4954894;28;20035;-65
2022/03/30 02:24:51;;;;;;;29.05;11.55;;;;;;;;;;4954776;28;20122;-65
2022/03/30 02:27:19;;;;;;;29.73;12.55;;;;;;;;;;4955150;28;20035;-65
2022/03/30 02:29:48;;;;;;;27.48;11.73;;;;;;;;;;4954612;28;20030;-65
2022/03/30 02:32:14;;;;;;;28.60;12.65;;;;;;;;;;4954630;28;20087;-65
2022/03/30 02:34:40;;;;;;;31.88;13.00;;;;;;;;;;4954985;28;20464;-64
2022/03/30 02:37:06;;;;;;;27.15;12.00;;;;;;;;;;4954835;28;20484;-65
2022/03/30 02:39:31;;;;;;;32.72;12.13;;;;;;;;;;4955009;28;20035;-64
2022/03/30 02:41:57;;;;;;;28.63;12.18;;;;;;;;;;4953728;28;20071;-64
2022/03/30 02:44:22;;;;;;;28.67;11.95;;;;;;;;;;4969486;28;20035;-64
2022/03/30 02:46:49;;;;;;;32.05;12.23;;;;;;;;;;4953990;28;20037;-64
2022/03/30 02:49:14;;;;;;;31.10;12.15;;;;;;;;;;4957223;28;20054;-65
2022/03/30 02:51:40;;;;;;;29.25;11.95;;;;;;;;;;4973651;28;20384;-65
2022/03/30 02:54:06;;;;;;;32.95;11.82;;;;;;;;;;4973357;28;20431;-65
2022/03/30 02:56:33;;;;;;;28.55;12.10;;;;;;;;;;4973201;28;20038;-65
2022/03/30 02:58:58;;;;;;;28.50;11.98;;;;;;;;;;4972989;28;20066;-65
2022/03/30 03:01:24;;;;;;;29.50;13.05;;;;;;;;;;4973536;28;20067;-65
2022/03/30 03:03:49;;;;;;;29.85;13.30;;;;;;;;;;4972763;28;20081;-65
2022/03/30 03:06:14;;;;;;;28.42;13.00;;;;;;;;;;4973614;28;20431;-65
2022/03/30 03:08:40;;;;;;;29.20;12.88;;;;;;;;;;4973179;28;20034;-64
2022/03/30 03:11:05;;;;;;;33.97;13.05;;;;;;;;;;4971398;28;20125;-65
2022/03/30 03:13:31;;;;;;;30.63;12.38;;;;;;;;;;4973001;28;20049;-64
2022/03/30 03:15:56;;;;;;;31.73;12.18;;;;;;;;;;4973125;28;20026;-65
2022/03/30 03:18:21;;;;;;;29.30;12.88;;;;;;;;;;4973149;28;20073;-64
2022/03/30 03:20:48;;;;;;;33.78;12.65;;;;;;;;;;4972286;28;20113;-65
2022/03/30 03:23:14;;;;;;;37.15;13.13;;;;;;;;;;4973034;28;20038;-65
2022/03/30 03:25:41;;;;;;;33.17;12.90;;;;;;;;;;4972982;28;20030;-65
2022/03/30 03:28:08;;;;;;;30.65;12.40;;;;;;;;;;4972427;28;20461;-65
2022/03/30 03:30:33;;;;;;;33.53;12.70;;;;;;;;;;4971765;28;20139;-65
2022/03/30 03:32:59;;;;;;;28.40;12.40;;;;;;;;;;4972627;28;20110;-65
2022/03/30 03:35:25;;;;;;;28.13;12.00;;;;;;;;;;4973292;28;20390;-65
2022/03/30 03:37:51;;;;;;;33.92;12.95;;;;;;;;;;4972493;28;20110;-65
2022/03/30 03:40:17;;;;;;;32.17;12.65;;;;;;;;;;4972859;28;20070;-65
2022/03/30 03:42:43;;;;;;;33.78;12.98;;;;;;;;;;4972794;28;20038;-65
2022/03/30 03:45:09;;;;;;;35.50;12.30;;;;;;;;;;4972862;28;20035;-65
2022/03/30 03:47:35;;;;;;;34.22;12.70;;;;;;;;;;4973379;28;20045;-65
2022/03/30 03:50:02;;;;;;;36.60;12.90;;;;;;;;;;4972654;28;20043;-65
2022/03/30 03:52:27;;;;;;;26.73;12.55;;;;;;;;;;4972955;28;20038;-65
2022/03/30 03:54:52;;;;;;;33.05;13.27;;;;;;;;;;4972496;28;20031;-65
2022/03/30 03:57:18;;;;;;;28.70;12.30;;;;;;;;;;4973075;28;20077;-65
2022/03/30 03:59:43;;;;;;;31.20;12.88;;;;;;;;;;4972928;28;20086;-65
2022/03/30 04:02:09;;;;;;;29.30;12.40;;;;;;;;;;4972525;28;20042;-65
2022/03/30 04:04:37;;;;;;;30.08;13.20;;;;;;;;;;4972826;28;20081;-65
2022/03/30 04:07:03;;;;;;;31.13;12.70;;;;;;;;;;4972489;28;20057;-65
2022/03/30 04:09:28;;;;;;;32.08;12.38;;;;;;;;;;4976484;28;20035;-65
2022/03/30 04:11:54;;;;;;;29.15;12.77;;;;;;;;;;4975732;28;20042;-64
2022/03/30 04:14:19;;;;;;;29.55;12.55;;;;;;;;;;4976783;28;20474;-65
2022/03/30 04:16:46;;;;;;;35.15;12.65;;;;;;;;;;4976595;28;20031;-65
2022/03/30 04:19:11;;;;;;;27.58;11.77;;;;;;;;;;4976672;28;20491;-65
2022/03/30 04:21:36;;;;;;;28.55;12.90;;;;;;;;;;4976587;28;20038;-65
2022/03/30 04:24:02;;;;;;;28.27;12.48;;;;;;;;;;4975740;28;20046;-65
2022/03/30 04:26:28;;;;;;;27.95;13.13;;;;;;;;;;4976532;28;20027;-64
2022/03/30 04:28:53;;;;;;;33.72;13.30;;;;;;;;;;4975905;28;20031;-65
2022/03/30 04:31:18;;;;;;;32.63;13.10;;;;;;;;;;4958966;28;20384;-64
2022/03/30 04:33:44;;;;;;;35.00;13.30;;;;;;;;;;4976457;28;20035;-65
2022/03/30 04:36:09;;;;;;;31.98;13.00;;;;;;;;;;4976135;28;20031;-65
2022/03/30 04:38:35;;;;;;;33.50;13.00;;;;;;;;;;4976250;28;20058;-65
2022/03/30 04:41:00;;;;;;;35.50;12.55;;;;;;;;;;4974272;28;20045;-65
2022/03/30 04:43:27;;;;;;;30.77;12.48;;;;;;;;;;4976240;28;20041;-65
2022/03/30 04:45:54;;;;;;;31.35;13.32;;;;;;;;;;4975897;28;20035;-65
2022/03/30 04:48:20;;;;;;;34.85;13.52;;;;;;;;;;4974814;28;20066;-65
2022/03/30 04:50:45;;;;;;;33.20;13.00;;;;;;;;;;4975594;28;20086;-65
2022/03/30 04:53:10;;;;;;;30.67;12.73;;;;;;;;;;4975284;28;20536;-65
2022/03/30 04:55:36;;;;;;;31.40;13.40;;;;;;;;;;4976127;28;20031;-65
2022/03/30 04:58:02;;;;;;;29.33;12.88;;;;;;;;;;4975332;28;20129;-65
2022/03/30 05:00:28;;;;;;;38.33;13.27;;;;;;;;;;4976179;28;20041;-65
2022/03/30 05:02:53;;;;;;;36.80;13.18;;;;;;;;;;4975413;28;20026;-65
2022/03/30 05:05:19;;;;;;;31.48;13.00;;;;;;;;;;4975711;28;20034;-65
2022/03/30 05:07:44;;;;;;;36.95;13.18;;;;;;;;;;4975672;28;20038;-64
2022/03/30 05:10:11;;;;;;;31.23;13.32;;;;;;;;;;4974651;28;20026;-64
2022/03/30 05:12:37;;;;;;;31.17;12.25;;;;;;;;;;4975427;28;20105;-65
2022/03/30 05:15:03;;;;;;;33.92;12.90;;;;;;;;;;4975275;28;20058;-65
2022/03/30 05:17:28;;;;;;;39.95;13.80;;;;;;;;;;4975412;28;20093;-65
2022/03/30 05:19:54;;;;;;;36.10;13.13;;;;;;;;;;4974526;28;20023;-65
2022/03/30 05:22:19;;;;;;;36.60;13.88;;;;;;;;;;4975098;28;20038;-64
2022/03/30 05:24:45;;;;;;;31.77;12.40;;;;;;;;;;4975429;28;20465;-64
2022/03/30 05:27:11;;;;;;;35.92;13.82;;;;;;;;;;4975968;28;20468;-65
2022/03/30 05:29:37;;;;;;;31.80;13.68;;;;;;;;;;4959404;28;20031;-65
2022/03/30 05:32:03;;;;;;;31.10;12.27;;;;;;;;;;4974627;28;20034;-64
2022/03/30 05:34:28;;;;;;;34.65;13.55;;;;;;;;;;4974039;28;20030;-65
2022/03/30 05:36:56;;;;;;;33.10;13.15;;;;;;;;;;4974548;28;20373;-66
2022/03/30 05:39:22;;;;;;;28.55;12.07;;;;;;;;;;4976030;28;20030;-65
2022/03/30 05:41:47;;;;;;;29.20;12.65;;;;;;;;;;4974948;28;20054;-65
2022/03/30 05:44:13;;;;;;;27.63;12.40;;;;;;;;;;4957035;28;20042;-65
2022/03/30 05:46:39;;;;;;;31.23;13.05;;;;;;;;;;4974865;28;20031;-65
2022/03/30 05:49:05;;;;;;;28.80;12.60;;;;;;;;;;4974479;28;20031;-65
2022/03/30 05:51:31;;;;;;;29.42;12.93;;;;;;;;;;4974995;28;20050;-66
2022/03/30 05:53:57;;;;;;;33.10;12.40;;;;;;;;;;4974282;28;20043;-65
2022/03/30 05:57:00;;;;;;;30.25;12.15;;;;;;;;;;4974761;28;20400;-65
2022/03/30 05:59:08;;;;;;;33.15;12.02;;;;;;;;;;4974243;28;20385;-66
2022/03/30 06:01:34;;;;;;;38.78;13.27;;;;;;;;;;4974634;28;20045;-65
2022/03/30 06:03:59;;;;;;;31.38;12.65;;;;;;;;;;4974241;28;20106;-64
2022/03/30 06:06:25;;;;;;;32.67;11.93;;;;;;;;;;4957439;28;20037;-64
2022/03/30 06:08:50;;;;;;;32.22;11.15;;;;;;;;;;4974994;28;20416;-76
2022/03/30 06:11:16;;;;;;;29.95;11.82;;;;;;;;;;4956532;28;20447;-68
2022/03/30 06:13:41;;;;;;;26.83;11.18;;;;;;;;;;4974575;28;20365;-66
2022/03/30 06:16:07;;;;;;;31.42;12.55;;;;;;;;;;4972845;28;20118;-66
2022/03/30 06:18:33;;;;;;;30.35;12.38;;;;;;;;;;4974454;28;20038;-66
2022/03/30 06:20:59;;;;;;;30.50;11.52;;;;;;;;;;4972497;28;20472;-66
2022/03/30 06:23:24;;;;;;;27.27;12.18;;;;;;;;;;4974193;28;20118;-65
2022/03/30 06:25:51;;;;;;;39.00;13.30;;;;;;;;;;4957148;28;20089;-66
2022/03/30 06:28:17;;;;;;;30.00;12.07;;;;;;;;;;4973663;28;20431;-66
2022/03/30 06:30:43;;;;;;;29.58;11.85;;;;;;;;;;4973593;28;20065;-66
2022/03/30 06:33:08;;;;;;;24.40;11.20;;;;;;;;;;4973135;28;20038;-66
2022/03/30 06:35:34;;;;;;;25.50;11.32;;;;;;;;;;4973980;28;20031;-66
2022/03/30 06:37:59;;;;;;;30.25;11.85;;;;;;;;;;4973495;28;20385;-66
2022/03/30 06:40:24;;;;;;;28.02;11.65;;;;;;;;;;4974083;28;20070;-66
2022/03/30 06:42:53;;;;;;;26.13;10.50;;;;;;;;;;4974021;28;20465;-66
2022/03/30 06:45:19;;;;;;;24.58;10.68;;;;;;;;;;4973304;28;20030;-66
2022/03/30 06:47:44;;;;;;;23.38;10.60;;;;;;;;;;4973708;28;20049;-66
2022/03/30 06:50:11;;;;;;;24.00;10.43;;;;;;;;;;4973205;28;20520;-66
2022/03/30 06:52:36;;;;;;;24.80;10.43;;;;;;;;;;4973923;28;20031;-66
2022/03/30 06:55:05;;;;;;;27.98;11.32;;;;;;;;;;4973179;28;20409;-66
2022/03/30 06:57:30;;;;;;;28.10;10.77;;;;;;;;;;4973817;28;20532;-66
2022/03/30 06:59:56;;;;;;;24.27;9.70;;;;;;;;;;4973077;28;20122;-67
2022/03/30 07:02:22;;;;;;;23.90;10.68;;;;;;;;;;4973729;28;20433;-67
2022/03/30 07:04:47;;;;;;;21.35;9.73;;;;;;;;;;4973520;28;20133;-66
2022/03/30 07:10:15;;;;;;;37.75;10.90;;;;;;;;;;4973225;28;20042;-67
2022/03/30 07:12:40;;;;;;;23.55;9.55;;;;;;;;;;4973856;28;20027;-67
2022/03/30 07:15:06;;;;;;;21.50;9.65;;;;;;;;;;4974343;28;20031;-66
2022/03/30 07:17:33;;;;;;;24.02;9.68;;;;;;;;;;4976580;28;20033;-66
2022/03/30 07:19:59;;;;;;;23.67;9.65;;;;;;;;;;4973749;28;20038;-66
2022/03/30 07:22:24;;;;;;;22.08;9.30;;;;;;;;;;4973592;28;20031;-66
2022/03/30 07:24:50;;;;;;;22.88;9.60;;;;;;;;;;4973600;28;20022;-66
2022/03/30 07:27:16;;;;;;;22.00;10.05;;;;;;;;;;4972792;28;20504;-66
2022/03/30 07:29:41;;;;;;;19.88;9.52;;;;;;;;;;4973414;28;20034;-66
2022/03/30 07:32:07;;;;;;;22.95;9.80;;;;;;;;;;4972703;28;20031;-66
2022/03/30 07:34:32;;;;;;;19.55;9.35;;;;;;;;;;4973527;28;20082;-65
2022/03/30 07:36:58;;;;;;;22.00;9.73;;;;;;;;;;4972744;28;20461;-65
2022/03/30 07:39:23;;;;;;;24.58;9.77;;;;;;;;;;4973261;28;20027;-66
2022/03/30 07:41:49;;;;;;;21.15;9.35;;;;;;;;;;4972908;28;20487;-66
2022/03/30 07:44:14;;;;;;;29.75;11.35;;;;;;;;;;4959413;28;20037;-66
2022/03/30 07:46:40;;;;;;;25.27;9.75;;;;;;;;;;4977215;28;20038;-66
2022/03/30 07:49:06;;;;;;;21.30;9.82;;;;;;;;;;4976458;28;20027;-66
2022/03/30 07:51:31;;;;;;;22.52;10.27;;;;;;;;;;4976929;28;20091;-66
2022/03/30 07:53:57;;;;;;;23.23;10.50;;;;;;;;;;4976893;28;20033;-66
2022/03/30 07:56:23;;;;;;;20.25;9.90;;;;;;;;;;4976083;28;20397;-66
2022/03/30 07:58:49;;;;;;;21.05;9.75;;;;;;;;;;4977063;28;20042;-67
2022/03/30 08:01:18;;;;;;;21.48;10.68;;;;;;;;;;4976218;28;20034;-66
2022/03/30 08:03:44;;;;;;;27.58;10.55;;;;;;;;;;4976537;28;20489;-66
2022/03/30 08:06:10;;;;;;;21.73;9.88;;;;;;;;;;4976213;28;20062;-66
2022/03/30 08:08:36;;;;;;;29.30;10.70;;;;;;;;;;4977194;28;20384;-66
2022/03/30 08:11:01;;;;;;;22.88;10.07;;;;;;;;;;4976214;28;20031;-66
2022/03/30 08:13:27;;;;;;;26.33;10.20;;;;;;;;;;4976460;28;20031;-67
2022/03/30 08:15:52;;;;;;;25.15;9.95;;;;;;;;;;4976784;28;20492;-67
2022/03/30 08:18:17;;;;;;;27.55;9.73;;;;;;;;;;4976147;28;20031;-66
2022/03/30 08:23:27;;;;;;;17.88;9.15;;;;;;;;;;4976678;28;20097;-66
2022/03/30 08:25:53;;;;;;;30.25;9.40;;;;;;;;;;4976452;28;20026;-66
2022/03/30 08:28:18;;;;;;;19.67;8.52;;;;;;;;;;4974776;28;20037;-66
2022/03/30 08:30:44;;;;;;;20.30;8.55;;;;;;;;;;4959114;28;20030;-67
2022/03/30 08:33:09;;;;;;;18.80;8.50;;;;;;;;;;4975707;28;20041;-66
2022/03/30 08:35:35;;;;;;;19.80;7.63;;;;;;;;;;4976377;28;20038;-67
2022/03/30 08:38:01;;;;;;;24.30;8.05;;;;;;;;;;4976381;28;20039;-66
2022/03/30 08:40:27;;;;;;;23.20;9.70;;;;;;;;;;4976449;28;20034;-66
2022/03/30 08:42:53;;;;;;;21.10;8.32;;;;;;;;;;4976359;28;20097;-66
2022/03/30 08:45:19;;;;;;;20.50;8.23;;;;;;;;;;4975700;28;20031;-66
2022/03/30 08:47:46;;;;;;;17.10;8.45;;;;;;;;;;4976193;28;20137;-66
2022/03/30 08:50:12;;;;;;;21.40;8.70;;;;;;;;;;4975345;28;20126;-66
2022/03/30 08:52:37;;;;;;;18.17;8.48;;;;;;;;;;4975562;28;20114;-65
2022/03/30 08:55:04;;;;;;;19.05;8.05;;;;;;;;;;4974716;28;20421;-65
2022/03/30 08:57:29;;;;;;;18.55;8.00;;;;;;;;;;4975800;28;20034;-67
2022/03/30 09:00:13;;;;;;;24.52;8.70;;;;;;;;;;4976029;28;20031;-66
2022/03/30 09:02:41;;;;;;;22.10;9.27;;;;;;;;;;4974612;28;20464;-66
2022/03/30 09:05:13;;;;;;;19.20;8.20;;;;;;;;;;4975238;28;20041;-66
2022/03/30 09:07:40;;;;;;;17.75;8.48;;;;;;;;;;4976062;28;20039;-66
2022/03/30 09:10:11;;;;;;;16.92;7.97;;;;;;;;;;4974744;28;20038;-66
2022/03/30 09:12:38;;;;;;;16.70;8.13;;;;;;;;;;4974351;28;20057;-66
2022/03/30 09:15:05;;;;;;;15.80;7.70;;;;;;;;;;4958060;28;20448;-66
2022/03/30 09:17:37;;;;;;;16.63;7.63;;;;;;;;;;4958443;28;20085;-66
2022/03/30 09:20:04;;;;;;;20.27;7.90;;;;;;;;;;4975375;28;20030;-67
2022/03/30 09:22:32;;;;;;;16.73;8.45;;;;;;;;;;4975437;28;20038;-67
2022/03/30 09:24:57;;;;;;;15.38;7.07;;;;;;;;;;4958087;28;20038;-67
2022/03/30 09:27:24;;;;;;;17.85;8.00;;;;;;;;;;4974551;28;20404;-66
2022/03/30 09:29:50;;;;;;;18.23;8.00;;;;;;;;;;4957860;28;20031;-67
2022/03/30 09:32:15;;;;;;;16.58;7.97;;;;;;;;;;4974174;28;20093;-64
2022/03/30 09:34:53;;;;;;;15.68;7.53;;;;;;;;;;4975041;28;20101;-66
2022/03/30 09:37:18;;;;;;;15.20;7.55;;;;;;;;;;4974344;28;20062;-65
2022/03/30 09:39:45;;;;;;;15.50;7.40;;;;;;;;;;4975141;28;20408;-65
2022/03/30 09:42:11;;;;;;;13.32;6.93;;;;;;;;;;4957075;28;20041;-66
2022/03/30 09:44:54;;;;;;;15.02;7.03;;;;;;;;;;4975079;28;20031;-66
2022/03/30 09:47:21;;;;;;;19.48;7.35;;;;;;;;;;4974172;28;20030;-66
2022/03/30 09:49:49;;;;;;;14.60;7.50;;;;;;;;;;4957293;28;20460;-66
2022/03/30 09:52:17;;;;;;;14.50;7.05;;;;;;;;;;4974414;28;20037;-66
2022/03/30 09:54:49;;;;;;;18.00;8.23;;;;;;;;;;4974637;28;20428;-66
2022/03/30 09:57:18;;;;;;;15.93;7.32;;;;;;;;;;4956839;28;20109;-66
2022/03/30 09:59:58;;;;;;;15.27;7.40;;;;;;;;;;4974893;28;20392;-67
2022/03/30 10:02:24;;;;;;;19.45;7.57;;;;;;;;;;4973959;28;20035;-67
2022/03/30 10:04:50;;;;;;;18.88;7.75;;;;;;;;;;4974720;28;20074;-66
2022/03/30 10:07:15;;;;;;;14.57;6.95;;;;;;;;;;4974440;28;20535;-67
2022/03/30 10:09:43;;;;;;;13.38;6.93;;;;;;;;;;4973190;28;20102;-66
2022/03/30 10:12:08;;;;;;;15.00;7.15;;;;;;;;;;4956549;28;20432;-64
2022/03/30 10:14:36;;;;;;;17.88;7.55;;;;;;;;;;4957338;28;20033;-67
2022/03/30 10:17:01;;;;;;;16.50;7.68;;;;;;;;;;4957327;28;20093;-67
2022/03/30 10:19:28;;;;;;;19.25;7.13;;;;;;;;;;4973769;28;20585;-66
2022/03/30 10:22:06;;;;;;;16.27;7.20;;;;;;;;;;4972901;28;20038;-65
2022/03/30 10:24:44;;;;;;;16.88;7.85;;;;;;;;;;4973836;28;20057;-66
2022/03/30 10:27:26;;;;;;;17.02;7.82;;;;;;;;;;4973761;28;20046;-65
2022/03/30 10:29:54;;;;;;;17.15;7.60;;;;;;;;;;4974397;28;20066;-65
2022/03/30 10:32:23;;;;;;;14.23;7.10;;;;;;;;;;4972191;28;20034;-66
2022/03/30 10:34:57;;;;;;;16.08;7.40;;;;;;;;;;4956905;28;20033;-66
2022/03/30 10:37:25;;;;;;;16.27;7.03;;;;;;;;;;4973275;28;20396;-67
2022/03/30 10:40:04;;;;;;;16.80;7.60;;;;;;;;;;4974190;28;20392;-66
2022/03/30 10:42:48;;;;;;;17.05;7.20;;;;;;;;;;4971939;28;20045;-67
2022/03/30 10:45:42;;;;;;;14.48;7.43;;;;;;;;;;4973115;28;20034;-67
2022/03/30 10:48:19;;;;;;;15.05;6.93;;;;;;;;;;4966079;28;20058;-66
2022/03/30 10:50:49;;;;;;;15.93;6.75;;;;;;;;;;4974052;28;20102;-66
2022/03/30 10:53:33;;;;;;;13.20;7.22;;;;;;;;;;4972894;28;20037;-66
2022/03/30 10:56:14;;;;;;;14.25;7.22;;;;;;;;;;4974082;28;20062;-67
2022/03/30 10:58:59;;;;;;;15.80;7.50;;;;;;;;;;4973971;28;20027;-66
2022/03/30 11:01:32;;;;;;;14.93;7.43;;;;;;;;;;4973006;28;20034;-67
2022/03/30 11:03:59;;;;;;;13.90;7.47;;;;;;;;;;4972837;28;20412;-67
2022/03/30 11:06:26;;;;;;;14.20;7.45;;;;;;;;;;4973047;28;20500;-66
2022/03/30 11:08:51;;;;;;;18.85;8.10;;;;;;;;;;4973748;28;20049;-67
2022/03/30 11:11:24;;;;;;;15.40;7.32;;;;;;;;;;4972970;28;20380;-66
2022/03/30 11:14:21;;;;;;;17.65;8.02;;;;;;;;;;4973425;28;20126;-66
2022/03/30 11:16:51;;;;;;;14.18;7.30;;;;;;;;;;4973203;28;20039;-68
2022/03/30 11:19:17;;;;;;;14.30;7.33;;;;;;;;;;4971827;28;20034;-65
2022/03/30 11:22:15;;;;;;;17.55;7.65;;;;;;;;;;4973649;28;20038;-65
2022/03/30 11:24:44;;;;;;;14.77;7.70;;;;;;;;;;4930765;28;20038;-66
2022/03/30 11:27:10;;;;;;;13.07;6.93;;;;;;;;;;4955953;28;20030;-66
2022/03/30 11:29:54;;;;;;;14.55;7.20;;;;;;;;;;4971601;28;20027;-66
2022/03/30 11:32:22;;;;;;;13.05;7.13;;;;;;;;;;4972810;28;20038;-65
2022/03/30 11:34:53;;;;;;;14.10;7.45;;;;;;;;;;4973221;28;20563;-66
2022/03/30 11:37:30;;;;;;;12.75;7.43;;;;;;;;;;4955436;28;20041;-66
2022/03/30 11:40:25;;;;;;;12.88;7.00;;;;;;;;;;4956192;28;20441;-66
2022/03/30 11:42:59;;;;;;;11.73;6.68;;;;;;;;;;4972028;28;20031;-67
2022/03/30 11:45:29;;;;;;;13.63;7.00;;;;;;;;;;4955530;28;20023;-66
2022/03/30 11:47:58;;;;;;;13.85;7.20;;;;;;;;;;4972908;28;20023;-66
2022/03/30 11:50:43;;;;;;;13.93;7.32;;;;;;;;;;4972237;28;20047;-66
2022/03/30 11:53:13;;;;;;;14.50;7.18;;;;;;;;;;4972909;28;20062;-67
2022/03/30 11:55:53;;;;;;;13.15;7.57;;;;;;;;;;4972678;28;20030;-68
2022/03/30 11:58:44;;;;;;;12.93;7.95;;;;;;;;;;4973643;28;20046;-67
2022/03/30 12:01:12;;;;;;;14.52;7.50;;;;;;;;;;4974079;28;20043;-68
2022/03/30 12:03:40;;;;;;;16.05;7.28;;;;;;;;;;4972686;28;20461;-68
2022/03/30 12:06:07;;;;;;;12.18;7.07;;;;;;;;;;4973093;28;20031;-67
2022/03/30 12:08:43;;;;;;;12.82;7.65;;;;;;;;;;4972471;28;20477;-67
2022/03/30 12:11:09;;;;;;;13.00;7.70;;;;;;;;;;4972729;28;20054;-66
2022/03/30 12:13:34;;;;;;;16.52;8.00;;;;;;;;;;4971116;28;20480;-65
2022/03/30 12:16:12;;;;;;;14.18;7.97;;;;;;;;;;4972782;28;20469;-66
2022/03/30 12:18:53;;;;;;;15.27;8.10;;;;;;;;;;4954899;28;20065;-66
2022/03/30 12:21:23;;;;;;;14.13;7.80;;;;;;;;;;4972317;28;20089;-66
2022/03/30 12:23:49;;;;;;;13.93;7.55;;;;;;;;;;4971206;28;20042;-67
2022/03/30 12:26:15;;;;;;;14.77;7.80;;;;;;;;;;4972520;28;20031;-67
2022/03/30 12:28:42;;;;;;;12.57;7.32;;;;;;;;;;4973518;28;20173;-67
2022/03/30 12:31:08;;;;;;;13.98;7.47;;;;;;;;;;4976357;28;20326;-68
2022/03/30 12:33:45;;;;;;;16.20;7.80;;;;;;;;;;4975194;28;20484;-67
2022/03/30 12:36:16;;;;;;;17.25;8.15;;;;;;;;;;4976336;28;20031;-67
2022/03/30 12:38:41;;;;;;;12.95;7.25;;;;;;;;;;4976065;28;20037;-66
2022/03/30 12:41:07;;;;;;;12.57;7.20;;;;;;;;;;4976106;28;20105;-67
2022/03/30 12:43:33;;;;;;;12.90;7.45;;;;;;;;;;4975420;28;20031;-66
2022/03/30 12:46:00;;;;;;;14.68;7.20;;;;;;;;;;4976092;28;20065;-66
2022/03/30 12:48:27;;;;;;;11.68;7.03;;;;;;;;;;4958215;28;20389;-66
2022/03/30 12:50:54;;;;;;;11.60;7.10;;;;;;;;;;4975657;28;20527;-66
2022/03/30 12:53:25;;;;;;;13.90;7.18;;;;;;;;;;4975198;28;20369;-67
2022/03/30 12:55:51;;;;;;;;;;;;;;;;;;4976522;28;20476;-67
2022/03/30 12:58:20;;;;;;;9.23;5.70;;;;;;;;;;4975535;28;20003;-67
2022/03/30 13:00:55;;;;;;;10.55;5.85;;;;;;;;;;4975892;28;20042;-66
2022/03/30 13:03:31;;;;;;;8.93;6.05;;;;;;;;;;4975084;28;20037;-66
2022/03/30 13:06:09;;;;;;;11.70;6.22;;;;;;;;;;4975687;28;20460;-67
2022/03/30 13:08:38;;;;;;;11.13;6.00;;;;;;;;;;4975097;28;20034;-66
2022/03/30 13:11:07;;;;;;;12.15;6.50;;;;;;;;;;4975732;28;20027;-66
2022/03/30 13:13:40;;;;;;;10.73;6.53;;;;;;;;;;4974734;28;20043;-66
2022/03/30 13:16:33;;;;;;;13.30;6.22;;;;;;;;;;4958443;28;20030;-67
2022/03/30 13:19:07;;;;;;;11.80;6.22;;;;;;;;;;4972095;28;20133;-66
2022/03/30 13:21:44;;;;;;;9.75;6.07;;;;;;;;;;4974688;28;20477;-67
2022/03/30 13:24:14;;;;;;;9.73;6.22;;;;;;;;;;4975486;28;20113;-68
2022/03/30 13:26:44;;;;;;;11.18;6.20;;;;;;;;;;4974729;28;20461;-67
2022/03/30 13:29:14;;;;;;;8.93;5.85;;;;;;;;;;4975441;28;20041;-66
2022/03/30 13:31:42;;;;;;;13.30;6.28;;;;;;;;;;4974593;28;20031;-66
2022/03/30 13:34:09;;;;;;;10.15;6.32;;;;;;;;;;4975355;28;20062;-67
2022/03/30 13:36:35;;;;;;;9.32;5.80;;;;;;;;;;4974340;28;20472;-66
2022/03/30 13:39:03;;;;;;;10.93;6.07;;;;;;;;;;4957673;28;20085;-67
2022/03/30 13:41:29;;;;;;;10.35;6.38;;;;;;;;;;4974816;28;20049;-66
2022/03/30 13:43:55;;;;;;;10.57;5.82;;;;;;;;;;4975013;28;20039;-66
2022/03/30 13:46:21;;;;;;;8.88;5.97;;;;;;;;;;4974448;28;20114;-66
2022/03/30 13:48:47;;;;;;;11.02;6.00;;;;;;;;;;4974655;28;20532;-67
2022/03/30 13:51:12;;;;;;;8.85;5.45;;;;;;;;;;4975136;28;20125;-67
2022/03/30 13:53:39;;;;;;;8.70;5.55;;;;;;;;;;4972676;28;20102;-67
2022/03/30 13:56:05;;;;;;;10.70;5.80;;;;;;;;;;4973687;28;20059;-68
2022/03/30 13:58:31;;;;;;;9.43;5.72;;;;;;;;;;4974264;28;20039;-66
2022/03/30 14:00:58;;;;;;;9.80;5.95;;;;;;;;;;4974709;28;20388;-66
2022/03/30 14:03:26;;;;;;;10.43;5.82;;;;;;;;;;4974109;28;20089;-66
2022/03/30 14:05:52;;;;;;;10.98;5.72;;;;;;;;;;4974733;28;20460;-66
2022/03/30 14:08:18;;;;;;;10.30;6.20;;;;;;;;;;4974716;28;20023;-66
2022/03/30 14:10:43;;;;;;;11.85;6.18;;;;;;;;;;4972838;28;20031;-66
2022/03/30 14:13:10;;;;;;;12.38;6.45;;;;;;;;;;4974518;28;20027;-66
2022/03/30 14:15:36;;;;;;;12.48;6.00;;;;;;;;;;4956865;28;20124;-68
2022/03/30 14:18:01;;;;;;;14.13;5.90;;;;;;;;;;4974643;28;20478;-68
2022/03/30 14:20:28;;;;;;;9.68;5.65;;;;;;;;;;4974092;28;20126;-65
2022/03/30 14:22:53;;;;;;;11.50;6.38;;;;;;;;;;4974356;28;20409;-66
2022/03/30 14:25:19;;;;;;;10.00;6.38;;;;;;;;;;4974228;28;20054;-66
2022/03/30 14:27:45;;;;;;;11.93;6.05;;;;;;;;;;4973403;28;20053;-67
2022/03/30 14:30:12;;;;;;;11.38;6.30;;;;;;;;;;4974394;28;20065;-66
2022/03/30 14:32:39;;;;;;;11.85;6.22;;;;;;;;;;4973489;28;20030;-67
2022/03/30 14:35:05;;;;;;;10.50;6.32;;;;;;;;;;4956831;28;20031;-67